createdAt,value
2022-08-03T00:01:39.104Z,114.03
2022-08-03T00:04:07.770Z,97.68
2022-08-03T00:06:37.248Z,99.88
2022-08-03T00:09:07.010Z,82.47
2022-08-03T00:11:34.806Z,103.97
2022-08-03T00:14:02.224Z,102.32
2022-08-03T00:16:29.411Z,110.60
2022-08-03T00:18:56.848Z,106.57
2022-08-03T00:21:23.957Z,108.07
2022-08-03T00:23:52.860Z,104.80
2022-08-03T00:26:21.518Z,102.00
2022-08-03T00:28:49.684Z,108.03
2022-08-03T00:31:16.951Z,91.25
2022-08-03T00:33:59.054Z,95.72
2022-08-03T00:36:28.038Z,97.18
2022-08-03T00:38:56.331Z,105.90
2022-08-03T00:41:23.463Z,100.22
2022-08-03T00:43:50.527Z,94.78
2022-08-03T00:46:21.415Z,104.85
2022-08-03T00:48:50.472Z,97.45
2022-08-03T00:51:18.561Z,81.28
2022-08-03T00:53:46.145Z,94.97
2022-08-03T00:56:17.482Z,94.68
2022-08-03T00:58:46.434Z,82.65
2022-08-03T01:01:14.387Z,81.50
2022-08-03T01:03:41.713Z,77.75
2022-08-03T01:06:28.122Z,89.28
2022-08-03T01:09:05.347Z,76.15
2022-08-03T01:12:01.685Z,78.35
2022-08-03T01:14:39.705Z,69.13
2022-08-03T01:17:25.891Z,73.82
2022-08-03T01:20:11.078Z,74.93
2022-08-03T01:22:57.910Z,78.72
2022-08-03T01:25:31.719Z,79.05
2022-08-03T01:28:28.183Z,78.50
2022-08-03T01:30:59.227Z,81.00
2022-08-03T01:33:37.265Z,80.57
2022-08-03T01:36:08.049Z,72.68
2022-08-03T01:38:42.153Z,81.53
2022-08-03T01:41:13.830Z,74.57
2022-08-03T01:44:27.547Z,70.05
2022-08-03T01:46:34.197Z,66.60
2022-08-03T01:49:09.366Z,77.35
2022-08-03T01:51:58.599Z,65.80
2022-08-03T01:54:30.784Z,69.53
2022-08-03T01:56:59.148Z,65.72
2022-08-03T01:59:28.468Z,80.40
2022-08-03T02:02:29.773Z,72.00
2022-08-03T02:04:47.122Z,74.10
2022-08-03T02:07:15.690Z,76.10
2022-08-03T02:09:46.996Z,67.35
2022-08-03T02:12:15.547Z,76.00
2022-08-03T02:14:45.850Z,75.78
2022-08-03T02:17:14.159Z,69.72
2022-08-03T02:19:43.341Z,65.43
2022-08-03T02:22:12.408Z,72.63
2022-08-03T02:24:40.178Z,70.80
2022-08-03T02:27:15.775Z,73.55
2022-08-03T02:29:45.487Z,68.10
2022-08-03T02:32:17.814Z,67.53
2022-08-03T02:34:48.990Z,64.63
2022-08-03T02:37:19.752Z,71.63
2022-08-03T02:39:49.436Z,70.00
2022-08-03T02:42:18.952Z,70.07
2022-08-03T02:44:50.459Z,71.72
2022-08-03T02:49:52.423Z,54.95
2022-08-03T02:52:27.048Z,59.97
2022-08-03T02:54:59.080Z,73.07
2022-08-03T02:57:29.488Z,69.07
2022-08-03T02:59:58.463Z,71.93
2022-08-03T03:02:26.087Z,75.22
2022-08-03T03:05:52.534Z,75.85
2022-08-03T03:07:51.848Z,69.93
2022-08-03T03:10:23.111Z,75.13
2022-08-03T03:12:57.363Z,71.38
2022-08-03T03:15:26.826Z,83.70
2022-08-03T03:17:54.667Z,84.35
2022-08-03T03:20:29.452Z,85.80
2022-08-03T03:23:00.719Z,84.03
2022-08-03T03:25:32.535Z,86.88
2022-08-03T03:28:03.755Z,78.88
2022-08-03T03:30:34.210Z,86.78
2022-08-03T03:33:02.807Z,80.88
2022-08-03T03:35:31.422Z,83.28
2022-08-03T03:38:06.624Z,82.72
2022-08-03T03:40:36.118Z,86.18
2022-08-03T03:43:03.970Z,83.68
2022-08-03T03:45:31.922Z,83.75
2022-08-03T03:48:09.321Z,85.45
2022-08-03T03:50:37.756Z,81.43
2022-08-03T03:53:05.202Z,82.22
2022-08-03T03:55:37.592Z,79.70
2022-08-03T03:58:24.916Z,76.43
2022-08-03T04:00:53.976Z,82.85
2022-08-03T04:03:21.363Z,85.07
2022-08-03T04:06:07.571Z,80.70
2022-08-03T04:08:53.102Z,78.50
2022-08-03T04:11:29.977Z,77.05
2022-08-03T04:14:16.512Z,80.15
2022-08-03T04:16:49.071Z,79.70
2022-08-03T04:19:40.915Z,80.65
2022-08-03T04:22:11.825Z,77.13
2022-08-03T04:24:46.537Z,76.13
2022-08-03T04:27:23.627Z,75.22
2022-08-03T04:29:54.670Z,73.45
2022-08-03T04:32:25.262Z,73.35
2022-08-03T04:37:35.384Z,65.18
2022-08-03T04:40:05.699Z,68.25
2022-08-03T04:42:34.623Z,71.90
2022-08-03T04:45:04.265Z,75.45
2022-08-03T04:47:34.250Z,76.37
2022-08-03T04:50:02.992Z,76.20
2022-08-03T04:52:30.683Z,78.72
2022-08-03T04:54:57.895Z,81.13
2022-08-03T04:57:24.946Z,73.40
2022-08-03T05:00:02.547Z,75.57
2022-08-03T05:02:30.687Z,78.07
2022-08-03T05:04:58.642Z,88.22
2022-08-03T05:07:25.738Z,72.47
2022-08-03T05:10:01.543Z,76.63
2022-08-03T05:12:32.914Z,75.28
2022-08-03T05:15:00.908Z,73.10
2022-08-03T05:17:28.621Z,73.68
2022-08-03T05:19:56.429Z,75.32
2022-08-03T05:22:24.061Z,75.43
2022-08-03T05:24:51.132Z,71.00
2022-08-03T05:27:20.205Z,76.38
2022-08-03T05:29:49.311Z,74.53
2022-08-03T05:32:17.776Z,74.30
2022-08-03T05:34:45.559Z,74.70
2022-08-03T05:37:12.684Z,75.32
2022-08-03T05:39:40.127Z,77.13
2022-08-03T05:42:07.306Z,71.22
2022-08-03T05:44:34.386Z,73.78
2022-08-03T05:47:01.375Z,70.93
2022-08-03T05:49:28.613Z,75.90
2022-08-03T05:52:00.063Z,79.30
2022-08-03T05:54:55.458Z,71.28
2022-08-03T05:57:24.551Z,68.80
2022-08-03T05:59:55.565Z,70.20
2022-08-03T06:02:28.848Z,70.65
2022-08-03T06:04:55.891Z,62.03
2022-08-03T06:07:23.160Z,62.40
2022-08-03T06:10:35.230Z,64.95
2022-08-03T06:12:37.851Z,62.08
2022-08-03T06:15:05.353Z,61.97
2022-08-03T06:17:37.786Z,64.45
2022-08-03T06:20:06.305Z,60.58
2022-08-03T06:22:33.715Z,61.58
2022-08-03T06:25:04.986Z,64.60
2022-08-03T06:27:36.636Z,66.15
2022-08-03T06:30:05.557Z,65.40
2022-08-03T06:32:33.775Z,60.75
2022-08-03T06:35:01.027Z,61.65
2022-08-03T06:37:28.893Z,68.38
2022-08-03T06:39:56.082Z,70.20
2022-08-03T06:42:23.289Z,62.53
2022-08-03T06:44:52.408Z,58.85
2022-08-03T06:47:19.538Z,59.72
2022-08-03T06:50:14.391Z,67.32
2022-08-03T06:52:38.127Z,65.90
2022-08-03T06:55:06.962Z,63.47
2022-08-03T06:57:33.976Z,67.65
2022-08-03T07:00:07.338Z,68.18
2022-08-03T07:02:35.876Z,77.57
2022-08-03T07:05:03.008Z,72.28
2022-08-03T07:07:30.131Z,65.65
2022-08-03T07:09:58.306Z,73.25
2022-08-03T07:12:27.712Z,81.82
2022-08-03T07:15:00.363Z,68.28
2022-08-03T07:17:34.765Z,71.78
2022-08-03T07:20:03.849Z,67.90
2022-08-03T07:22:30.952Z,67.53
2022-08-03T07:24:58.403Z,63.05
2022-08-03T07:27:29.726Z,73.78
2022-08-03T07:29:58.516Z,74.03
2022-08-03T07:32:26.082Z,73.20
2022-08-03T07:34:58.340Z,71.30
2022-08-03T07:37:27.529Z,74.30
2022-08-03T07:39:55.680Z,72.63
2022-08-03T07:42:23.974Z,78.15
2022-08-03T07:44:50.949Z,71.20
2022-08-03T07:47:24.598Z,67.55
2022-08-03T07:49:52.608Z,72.38
2022-08-03T07:52:46.226Z,83.65
2022-08-03T07:55:13.267Z,66.03
2022-08-03T07:57:40.330Z,73.90
2022-08-03T08:00:16.724Z,69.82
2022-08-03T08:02:44.673Z,66.05
2022-08-03T08:05:12.634Z,71.72
2022-08-03T08:07:40.726Z,70.13
2022-08-03T08:10:10.254Z,76.57
2022-08-03T08:12:38.817Z,73.60
2022-08-03T08:15:07.238Z,70.20
2022-08-03T08:17:48.559Z,68.28
2022-08-03T08:20:27.963Z,62.55
2022-08-03T08:22:58.275Z,77.40
2022-08-03T08:25:28.991Z,70.63
2022-08-03T08:28:30.318Z,74.72
2022-08-03T08:30:49.564Z,64.78
2022-08-03T08:33:23.443Z,63.30
2022-08-03T08:35:53.174Z,77.65
2022-08-03T08:38:20.804Z,70.13
2022-08-03T08:40:49.299Z,73.78
2022-08-03T08:43:19.036Z,80.63
2022-08-03T08:45:52.113Z,82.20
2022-08-03T08:48:24.633Z,73.22
2022-08-03T08:50:56.512Z,82.15
2022-08-03T08:53:29.429Z,85.22
2022-08-03T08:56:01.059Z,92.07
2022-08-03T08:58:42.021Z,71.63
2022-08-03T09:01:09.339Z,87.53
2022-08-03T09:03:36.671Z,73.63
2022-08-03T09:06:04.765Z,76.80
2022-08-03T09:08:33.185Z,88.68
2022-08-03T09:11:00.717Z,81.78
2022-08-03T09:13:29.244Z,83.13
2022-08-03T09:16:19.390Z,87.65
2022-08-03T09:18:50.702Z,66.10
2022-08-03T09:21:31.774Z,96.03
2022-08-03T09:24:03.860Z,86.90
2022-08-03T09:26:34.779Z,86.55
2022-08-03T09:29:13.446Z,90.97
2022-08-03T09:31:45.433Z,82.22
2022-08-03T09:34:17.952Z,79.90
2022-08-03T09:36:49.764Z,91.15
2022-08-03T09:39:40.249Z,101.72
2022-08-03T09:42:18.731Z,104.95
2022-08-03T09:44:52.182Z,98.70
2022-08-03T09:47:29.051Z,97.68
2022-08-03T09:50:04.795Z,102.45
2022-08-03T09:52:49.304Z,82.20
2022-08-03T09:56:05.213Z,78.03
2022-08-03T09:58:10.520Z,102.50
2022-08-03T10:00:53.037Z,99.05
2022-08-03T10:03:20.220Z,89.93
2022-08-03T10:05:47.428Z,100.30
2022-08-03T10:08:19.958Z,78.30
2022-08-03T10:10:49.731Z,111.15
2022-08-03T10:13:19.190Z,112.32
2022-08-03T10:16:21.152Z,115.53
2022-08-03T10:18:34.167Z,115.47
2022-08-03T10:21:08.044Z,121.67
2022-08-03T10:23:38.016Z,129.98
2022-08-03T10:26:08.280Z,115.85
2022-08-03T10:28:44.776Z,142.38
2022-08-03T10:31:14.170Z,102.05
2022-08-03T10:33:50.806Z,92.63
2022-08-03T10:36:23.979Z,137.60
2022-08-03T10:38:53.805Z,87.80
2022-08-03T10:41:22.690Z,92.78
2022-08-03T10:44:01.886Z,142.15
2022-08-03T10:46:29.443Z,111.65
2022-08-03T10:48:57.595Z,82.35
2022-08-03T10:51:25.777Z,156.25
2022-08-03T10:53:55.017Z,134.35
2022-08-03T10:56:54.554Z,112.03
2022-08-03T10:59:46.614Z,98.03
2022-08-03T11:02:16.635Z,114.05
2022-08-03T11:04:45.296Z,96.95
2022-08-03T11:07:18.920Z,132.32
2022-08-03T11:09:52.849Z,102.20
2022-08-03T11:12:31.342Z,108.97
2022-08-03T11:15:06.747Z,132.05
2022-08-03T11:17:46.421Z,107.40
2022-08-03T11:20:45.046Z,104.22
2022-08-03T11:23:12.600Z,94.97
2022-08-03T11:26:09.890Z,104.70
2022-08-03T11:28:39.012Z,87.68
2022-08-03T11:31:48.848Z,100.60
2022-08-03T11:34:16.451Z,90.80
2022-08-03T11:37:22.338Z,96.20
2022-08-03T11:39:51.809Z,99.63
2022-08-03T11:42:25.589Z,102.82
2022-08-03T11:44:58.406Z,62.67
2022-08-03T11:47:27.444Z,69.18
2022-08-03T11:49:59.064Z,70.53
2022-08-03T11:52:28.765Z,59.58
2022-08-03T11:54:56.883Z,58.08
2022-08-03T11:59:02.642Z,66.63
2022-08-03T12:00:32.164Z,41.08
2022-08-03T12:03:14.219Z,65.80
2022-08-03T12:05:51.226Z,61.30
2022-08-03T12:08:30.153Z,81.93
2022-08-03T12:11:00.133Z,52.67
2022-08-03T12:16:19.650Z,54.60
2022-08-03T12:19:05.027Z,48.85
2022-08-03T12:21:32.778Z,66.72
2022-08-03T12:24:05.449Z,68.78
2022-08-03T12:26:46.307Z,52.75
2022-08-03T12:29:26.407Z,74.22
2022-08-03T12:31:53.390Z,55.22
2022-08-03T12:34:20.414Z,80.13
2022-08-03T12:36:56.626Z,94.35
2022-08-03T12:39:26.534Z,70.22
2022-08-03T12:41:54.760Z,125.15
2022-08-03T12:44:32.932Z,172.40
2022-08-03T12:47:00.879Z,142.70
2022-08-03T12:49:30.453Z,102.30
2022-08-03T12:52:03.951Z,124.68
2022-08-03T12:54:36.043Z,267.85
2022-08-03T12:57:15.952Z,378.73
2022-08-03T12:59:53.057Z,575.85
2022-08-03T13:02:23.612Z,567.03
2022-08-03T13:04:52.418Z,575.65
2022-08-03T13:07:20.223Z,641.00
2022-08-03T13:09:49.707Z,660.78
2022-08-03T13:12:24.938Z,677.15
2022-08-03T13:15:01.865Z,666.78
2022-08-03T13:17:28.920Z,493.70
2022-08-03T13:19:56.535Z,465.55
2022-08-03T13:22:26.135Z,543.85
2022-08-03T13:24:58.315Z,315.73
2022-08-03T13:28:03.447Z,288.73
2022-08-03T13:30:14.078Z,436.70
2022-08-03T13:32:50.605Z,554.67
2022-08-03T13:35:17.736Z,549.17
2022-08-03T13:37:47.833Z,431.13
2022-08-03T13:40:16.130Z,198.50
2022-08-03T13:42:45.173Z,399.13
2022-08-03T13:45:12.701Z,316.30
2022-08-03T13:47:39.720Z,227.35
2022-08-03T13:50:07.099Z,217.77
2022-08-03T13:52:35.810Z,292.75
2022-08-03T13:55:05.207Z,382.92
2022-08-03T13:58:05.036Z,492.90
2022-08-03T14:00:26.960Z,611.75
2022-08-03T14:03:13.211Z,668.33
2022-08-03T14:05:41.555Z,330.70
2022-08-03T14:08:09.083Z,541.45
2022-08-03T14:10:44.988Z,551.80
2022-08-03T14:13:17.503Z,738.47
2022-08-03T14:15:50.218Z,736.90
2022-08-03T14:18:27.886Z,651.63
2022-08-03T14:21:00.644Z,423.92
2022-08-03T14:23:32.593Z,578.03
2022-08-03T14:26:00.097Z,418.13
2022-08-03T14:28:27.451Z,433.58
2022-08-03T14:30:56.140Z,479.30
2022-08-03T14:33:23.692Z,448.42
2022-08-03T14:35:51.368Z,298.65
2022-08-03T14:38:19.086Z,309.02
2022-08-03T14:40:46.361Z,256.65
2022-08-03T14:43:13.454Z,206.63
2022-08-03T14:45:40.930Z,225.43
2022-08-03T14:50:24.384Z,284.10
2022-08-03T14:50:55.493Z,215.13
2022-08-03T14:53:22.738Z,247.32
2022-08-03T14:55:51.953Z,212.25
2022-08-03T14:58:23.219Z,160.55
2022-08-03T15:00:55.119Z,216.25
2022-08-03T15:03:24.742Z,225.88
2022-08-03T15:05:53.569Z,166.27
2022-08-03T15:08:21.298Z,223.68
2022-08-03T15:10:49.455Z,185.90
2022-08-03T15:13:17.946Z,177.07
2022-08-03T15:15:45.436Z,172.10
2022-08-03T15:18:12.558Z,194.82
2022-08-03T15:20:45.043Z,202.18
2022-08-03T15:23:14.912Z,173.95
2022-08-03T15:26:28.962Z,171.90
2022-08-03T15:28:30.386Z,196.32
2022-08-03T15:30:57.451Z,153.85
2022-08-03T15:33:24.677Z,175.02
2022-08-03T15:35:53.053Z,165.73
2022-08-03T15:38:25.956Z,202.75
2022-08-03T15:40:57.181Z,163.93
2022-08-03T15:43:24.508Z,166.63
2022-08-03T15:46:19.519Z,185.10
2022-08-03T15:48:40.532Z,159.27
2022-08-03T15:51:08.340Z,156.98
2022-08-03T15:53:35.628Z,216.30
2022-08-03T15:56:09.427Z,202.68
2022-08-03T15:59:04.043Z,205.75
2022-08-03T16:01:26.353Z,184.90
2022-08-03T16:03:53.418Z,203.45
2022-08-03T16:06:34.861Z,190.45
2022-08-03T16:09:23.712Z,186.75
2022-08-03T16:11:54.371Z,184.93
2022-08-03T16:14:32.709Z,186.10
2022-08-03T16:17:03.351Z,166.77
2022-08-03T16:19:30.467Z,171.70
2022-08-03T16:21:57.507Z,160.95
2022-08-03T16:24:27.793Z,170.60
2022-08-03T16:26:55.856Z,166.88
2022-08-03T16:29:23.851Z,142.75
2022-08-03T16:31:52.129Z,140.30
2022-08-03T16:34:19.980Z,144.90
2022-08-03T16:36:47.233Z,145.80
2022-08-03T16:39:15.504Z,127.63
2022-08-03T16:41:55.011Z,122.75
2022-08-03T16:44:31.269Z,122.65
2022-08-03T16:46:59.493Z,112.63
2022-08-03T16:49:54.266Z,111.95
2022-08-03T16:52:14.052Z,109.90
2022-08-03T16:54:44.450Z,112.00
2022-08-03T16:57:29.925Z,116.55
2022-08-03T17:00:07.944Z,115.20
2022-08-03T17:02:36.233Z,110.93
2022-08-03T17:05:03.858Z,112.63
2022-08-03T17:07:30.849Z,87.25
2022-08-03T17:09:58.171Z,110.78
2022-08-03T17:12:26.694Z,121.05
2022-08-03T17:14:54.491Z,123.65
2022-08-03T17:17:47.543Z,119.60
2022-08-03T17:20:29.701Z,114.55
2022-08-03T17:23:33.877Z,118.35
2022-08-03T17:26:02.110Z,100.18
2022-08-03T17:28:48.573Z,98.50
2022-08-03T17:31:23.507Z,127.05
2022-08-03T17:34:01.249Z,112.75
2022-08-03T17:39:17.931Z,108.75
2022-08-03T17:41:49.963Z,120.35
2022-08-03T17:44:31.124Z,92.53
2022-08-03T17:47:06.656Z,124.50
2022-08-03T17:49:39.958Z,89.80
2022-08-03T17:52:33.285Z,81.32
2022-08-03T17:55:55.443Z,99.30
2022-08-03T17:58:55.065Z,93.85
2022-08-03T18:01:57.429Z,81.22
2022-08-03T18:04:41.297Z,85.65
2022-08-03T18:07:12.425Z,67.75
2022-08-03T18:10:04.423Z,78.95
2022-08-03T18:12:40.539Z,81.55
2022-08-03T18:15:21.344Z,72.80
2022-08-03T18:17:55.669Z,80.53
2022-08-03T18:20:33.055Z,76.22
2022-08-03T18:23:06.871Z,98.45
2022-08-03T18:25:42.703Z,102.70
2022-08-03T18:28:14.585Z,108.80
2022-08-03T18:30:53.239Z,108.72
2022-08-03T18:34:19.775Z,92.40
2022-08-03T18:36:21.783Z,87.78
2022-08-03T18:38:53.919Z,83.80
2022-08-03T18:41:32.200Z,102.55
2022-08-03T18:44:09.019Z,98.90
2022-08-03T18:47:15.933Z,96.07
2022-08-03T18:50:22.824Z,112.95
2022-08-03T18:53:16.442Z,112.68
2022-08-03T18:56:16.286Z,125.53
2022-08-03T18:59:30.046Z,120.80
2022-08-03T19:02:09.233Z,107.50
2022-08-03T19:04:46.726Z,117.45
2022-08-03T19:07:22.241Z,91.88
2022-08-03T19:09:55.671Z,93.55
2022-08-03T19:12:42.194Z,96.00
2022-08-03T19:15:15.589Z,108.88
2022-08-03T19:17:53.729Z,104.25
2022-08-03T19:20:26.225Z,101.60
2022-08-03T19:22:55.905Z,107.22
2022-08-03T19:28:06.213Z,103.28
2022-08-03T19:30:40.381Z,116.03
2022-08-03T19:33:13.066Z,131.05
2022-08-03T19:35:51.804Z,104.22
2022-08-03T19:38:28.374Z,104.53
2022-08-03T19:41:00.497Z,103.50
2022-08-03T19:43:49.380Z,128.63
2022-08-03T19:46:21.882Z,111.70
2022-08-03T19:48:59.506Z,111.45
2022-08-03T19:52:03.014Z,121.13
2022-08-03T19:54:25.337Z,138.98
2022-08-03T19:56:58.421Z,103.68
2022-08-03T19:59:26.494Z,123.07
2022-08-03T20:01:54.314Z,128.45
2022-08-03T20:04:21.888Z,123.80
2022-08-03T20:06:50.133Z,120.50
2022-08-03T20:09:18.748Z,114.18
2022-08-03T20:11:47.884Z,123.77
2022-08-03T20:14:20.567Z,116.55
2022-08-03T20:16:53.724Z,113.13
2022-08-03T20:19:21.550Z,108.63
2022-08-03T20:21:51.440Z,124.88
2022-08-03T20:24:27.008Z,124.03
2022-08-03T20:26:57.721Z,119.63
2022-08-03T20:32:23.882Z,118.25
2022-08-03T20:34:52.975Z,125.32
2022-08-03T20:37:20.371Z,142.25
2022-08-03T20:39:49.789Z,126.45
2022-08-03T20:42:21.506Z,113.95
2022-08-03T20:45:05.299Z,121.43
2022-08-03T20:47:41.618Z,145.30
2022-08-03T20:50:19.191Z,135.43
2022-08-03T20:52:49.937Z,129.25
2022-08-03T20:55:47.676Z,112.18
2022-08-03T20:58:09.212Z,118.43
2022-08-03T21:00:36.399Z,109.40
2022-08-03T21:03:03.942Z,163.07
2022-08-03T21:05:51.074Z,135.90
2022-08-03T21:08:22.444Z,161.93
2022-08-03T21:10:52.370Z,125.57
2022-08-03T21:13:12.044Z,135.20
2022-08-03T21:13:41.386Z,151.95
2022-08-03T21:16:14.733Z,116.43
2022-08-03T21:18:54.482Z,161.25
2022-08-03T21:21:23.432Z,133.43
2022-08-03T21:23:52.955Z,142.80
2022-08-03T21:26:25.553Z,149.02
2022-08-03T21:28:56.061Z,133.85
2022-08-03T21:31:25.267Z,140.82
2022-08-03T21:33:55.652Z,145.23
2022-08-03T21:36:22.973Z,162.33
2022-08-03T21:38:56.637Z,150.90
2022-08-03T21:41:27.036Z,135.60
2022-08-03T21:43:54.245Z,111.57
2022-08-03T21:46:22.028Z,160.23
2022-08-03T21:48:56.588Z,114.57
2022-08-03T21:51:43.825Z,149.23
2022-08-03T21:54:12.092Z,155.95
2022-08-03T21:56:45.377Z,137.60
2022-08-03T21:59:20.257Z,130.98
2022-08-03T22:01:51.291Z,134.75
2022-08-03T22:04:50.178Z,125.95
2022-08-03T22:07:09.816Z,134.85
2022-08-03T22:09:36.986Z,144.07
2022-08-03T22:12:04.986Z,136.90
2022-08-03T22:14:33.181Z,145.85
2022-08-03T22:17:06.339Z,143.35
2022-08-03T22:19:34.598Z,141.65
2022-08-03T22:22:06.135Z,154.05
2022-08-03T22:24:36.235Z,137.85
2022-08-03T22:27:23.241Z,147.57
2022-08-03T22:29:51.430Z,139.10
2022-08-03T22:32:18.484Z,138.45
2022-08-03T22:34:47.485Z,141.07
2022-08-03T22:37:17.868Z,144.57
2022-08-03T22:39:45.731Z,137.48
2022-08-03T22:42:13.145Z,137.55
2022-08-03T22:44:40.455Z,144.38
2022-08-03T22:47:09.597Z,132.30
2022-08-03T22:49:37.954Z,149.80
2022-08-03T22:52:07.458Z,127.43
2022-08-03T22:54:35.945Z,129.50
2022-08-03T22:57:04.539Z,138.02
2022-08-03T22:59:40.885Z,131.15
2022-08-03T23:02:20.113Z,132.40
2022-08-03T23:04:52.446Z,133.45
2022-08-03T23:07:30.260Z,130.57
2022-08-03T23:09:58.421Z,124.45
2022-08-03T23:12:26.957Z,133.73
2022-08-03T23:15:01.170Z,132.65
2022-08-03T23:17:30.875Z,115.65
2022-08-03T23:20:08.757Z,123.35
2022-08-03T23:22:42.864Z,128.68
2022-08-03T23:25:10.965Z,124.35
2022-08-03T23:27:42.452Z,138.38
2022-08-03T23:30:12.230Z,130.95
2022-08-03T23:32:43.005Z,125.55
2022-08-03T23:36:28.725Z,135.52
2022-08-03T23:38:22.139Z,109.13
2022-08-03T23:40:51.390Z,129.98
2022-08-03T23:43:44.729Z,117.25
2022-08-03T23:46:09.194Z,130.95
2022-08-03T23:48:37.510Z,120.43
2022-08-03T23:51:13.057Z,135.15
2022-08-03T23:54:00.134Z,131.30
2022-08-03T23:56:48.347Z,131.05
2022-08-03T23:59:35.896Z,123.18
